Time;durP1;ratioP1;P1;durP2;ratioP2;P2;SDS_P1;SDS_P2;PMS_P1;PMS_P2;Temp;Humidity;BMP_temperature;BMP_pressure;BME280_temperature;BME280_humidity;BME280_pressure;Samples;Min_cycle;Max_cycle;Signal;HPM_P1;HPM_P2
2023/03/24 00:00:15;;;;;;;4.03;3.25;;;;;;;;;;5009124;28;20080;-59
2023/03/24 00:02:42;;;;;;;4.80;3.40;;;;;;;;;;5009370;28;20077;-59
2023/03/24 00:05:11;;;;;;;6.88;3.35;;;;;;;;;;5009205;28;20026;-60
2023/03/24 00:07:37;;;;;;;5.95;3.70;;;;;;;;;;5009378;28;20403;-60
2023/03/24 00:10:11;;;;;;;5.32;3.10;;;;;;;;;;5008941;28;20038;-61
2023/03/24 00:12:38;;;;;;;7.28;3.60;;;;;;;;;;5009990;28;20049;-60
2023/03/24 00:15:07;;;;;;;3.97;3.28;;;;;;;;;;5010926;28;20056;-60
2023/03/24 00:17:34;;;;;;;6.82;3.40;;;;;;;;;;5009987;28;20040;-59
2023/03/24 00:20:12;;;;;;;5.03;3.33;;;;;;;;;;5009906;28;20053;-58
2023/03/24 00:22:55;;;;;;;8.40;3.60;;;;;;;;;;5010767;28;20488;-55
2023/03/24 00:25:26;;;;;;;5.60;3.50;;;;;;;;;;5006971;28;20045;-59
2023/03/24 00:27:54;;;;;;;5.18;3.47;;;;;;;;;;5006773;28;20038;-59
2023/03/24 00:30:21;;;;;;;6.45;3.55;;;;;;;;;;5008377;28;20029;-60
2023/03/24 00:32:48;;;;;;;7.30;3.83;;;;;;;;;;5006823;28;20053;-59
2023/03/24 00:35:16;;;;;;;7.25;3.63;;;;;;;;;;5008896;28;20504;-59
2023/03/24 00:37:43;;;;;;;5.40;3.85;;;;;;;;;;5008089;28;20050;-60
2023/03/24 00:40:15;;;;;;;6.75;3.60;;;;;;;;;;5008172;28;20661;-60
2023/03/24 00:42:46;;;;;;;5.60;3.67;;;;;;;;;;5006454;28;20030;-59
2023/03/24 00:45:15;;;;;;;5.85;3.95;;;;;;;;;;5008197;28;20045;-60
2023/03/24 00:47:43;;;;;;;7.35;4.30;;;;;;;;;;5008671;28;20034;-61
2023/03/24 00:50:17;;;;;;;8.45;4.53;;;;;;;;;;5009143;28;20038;-60
2023/03/24 00:52:46;;;;;;;7.65;4.35;;;;;;;;;;5007235;28;20042;-59
2023/03/24 00:55:14;;;;;;;7.28;3.90;;;;;;;;;;5009761;28;20423;-60
2023/03/24 00:57:48;;;;;;;6.57;4.03;;;;;;;;;;5008358;28;20041;-59
2023/03/24 01:00:18;;;;;;;8.18;4.05;;;;;;;;;;5008067;28;20033;-60
2023/03/24 01:02:45;;;;;;;;;;;;;;;;;;5009816;28;20042;-59
2023/03/24 01:05:13;;;;;;;7.10;3.78;;;;;;;;;;5008225;28;19920;-59
2023/03/24 01:07:40;;;;;;;6.03;3.97;;;;;;;;;;5008914;28;20025;-59
2023/03/24 01:10:11;;;;;;;6.47;3.63;;;;;;;;;;5009100;28;20025;-60
2023/03/24 01:12:38;;;;;;;8.45;3.65;;;;;;;;;;5009502;28;20428;-60
2023/03/24 01:15:12;;;;;;;9.23;3.85;;;;;;;;;;5009283;28;20056;-60
2023/03/24 01:17:38;;;;;;;6.30;3.38;;;;;;;;;;5009492;28;20093;-59
2023/03/24 01:20:10;;;;;;;6.32;3.97;;;;;;;;;;5008646;28;20033;-59
2023/03/24 01:22:39;;;;;;;8.15;4.35;;;;;;;;;;5009545;28;20045;-58
2023/03/24 01:25:08;;;;;;;8.35;3.97;;;;;;;;;;5008584;28;20045;-58
2023/03/24 01:27:36;;;;;;;5.40;3.70;;;;;;;;;;5009390;28;20420;-59
2023/03/24 01:30:04;;;;;;;4.07;3.17;;;;;;;;;;5007622;28;20048;-60
2023/03/24 01:32:30;;;;;;;5.65;3.72;;;;;;;;;;5008803;28;20053;-59
2023/03/24 01:34:57;;;;;;;5.63;3.30;;;;;;;;;;5007517;28;20045;-60
2023/03/24 01:37:23;;;;;;;8.82;3.22;;;;;;;;;;5009220;28;20096;-59
2023/03/24 01:39:50;;;;;;;6.85;3.50;;;;;;;;;;5017114;28;20049;-59
2023/03/24 01:42:19;;;;;;;5.80;3.22;;;;;;;;;;5007716;28;20060;-59
2023/03/24 01:44:48;;;;;;;6.15;3.17;;;;;;;;;;5008565;28;20036;-61
2023/03/24 01:47:14;;;;;;;4.55;3.30;;;;;;;;;;5008524;28;20050;-60
2023/03/24 01:49:51;;;;;;;5.68;3.10;;;;;;;;;;5007151;28;20061;-60
2023/03/24 01:52:23;;;;;;;4.90;3.30;;;;;;;;;;5008891;28;20050;-62
2023/03/24 01:54:58;;;;;;;4.85;2.90;;;;;;;;;;5007594;28;20041;-59
2023/03/24 01:57:38;;;;;;;4.63;2.88;;;;;;;;;;5007671;28;20403;-60
2023/03/24 02:00:12;;;;;;;6.72;3.47;;;;;;;;;;5004959;28;20038;-59
2023/03/24 02:02:57;;;;;;;5.30;3.47;;;;;;;;;;5007261;28;20069;-61
2023/03/24 02:05:35;;;;;;;8.80;3.42;;;;;;;;;;5033558;28;20415;-60
2023/03/24 02:08:14;;;;;;;7.07;3.28;;;;;;;;;;5006695;28;20045;-60
2023/03/24 02:10:42;;;;;;;5.35;3.28;;;;;;;;;;5007215;28;20038;-60
2023/03/24 02:13:10;;;;;;;5.70;3.38;;;;;;;;;;5009048;28;20038;-61
2023/03/24 02:15:52;;;;;;;5.53;3.10;;;;;;;;;;5010550;28;20133;-60
2023/03/24 02:18:34;;;;;;;6.30;3.30;;;;;;;;;;5011246;28;20046;-60
2023/03/24 02:21:16;;;;;;;4.90;3.33;;;;;;;;;;5010434;28;20042;-61
2023/03/24 02:23:46;;;;;;;6.32;3.25;;;;;;;;;;5035905;28;20065;-59
2023/03/24 02:26:27;;;;;;;4.80;3.08;;;;;;;;;;5011555;28;20399;-60
2023/03/24 02:29:18;;;;;;;5.53;3.38;;;;;;;;;;5010303;28;20399;-59
2023/03/24 02:31:53;;;;;;;7.53;3.35;;;;;;;;;;5004986;28;20223;-59
2023/03/24 02:34:42;;;;;;;6.07;3.60;;;;;;;;;;5012767;28;20053;-60
2023/03/24 02:37:33;;;;;;;7.32;3.20;;;;;;;;;;5011034;28;20057;-60
2023/03/24 02:40:10;;;;;;;5.72;3.03;;;;;;;;;;5008702;28;20053;-59
2023/03/24 02:43:14;;;;;;;4.05;3.20;;;;;;;;;;5009676;28;20057;-61
2023/03/24 02:45:52;;;;;;;7.68;3.38;;;;;;;;;;5010378;28;20033;-59
2023/03/24 02:48:29;;;;;;;3.88;3.10;;;;;;;;;;5010773;28;20435;-59
2023/03/24 02:51:18;;;;;;;6.70;3.30;;;;;;;;;;5010735;28;20045;-60
2023/03/24 02:53:52;;;;;;;6.07;3.63;;;;;;;;;;5006436;28;20487;-60
2023/03/24 02:56:43;;;;;;;6.30;3.00;;;;;;;;;;5011592;28;20052;-60
2023/03/24 02:59:38;;;;;;;6.82;3.00;;;;;;;;;;5026133;28;20042;-60
2023/03/24 03:02:24;;;;;;;5.10;2.90;;;;;;;;;;5034648;28;20487;-60
2023/03/24 03:04:59;;;;;;;6.47;3.10;;;;;;;;;;5009432;28;20041;-59
2023/03/24 03:07:32;;;;;;;5.97;3.17;;;;;;;;;;5011023;28;20546;-60
2023/03/24 03:10:09;;;;;;;5.53;3.20;;;;;;;;;;5010525;28;20045;-60
2023/03/24 03:12:37;;;;;;;6.78;3.08;;;;;;;;;;5011982;28;20049;-60
2023/03/24 03:15:13;;;;;;;4.18;3.15;;;;;;;;;;5012193;28;20053;-60
2023/03/24 03:17:47;;;;;;;4.95;3.20;;;;;;;;;;5010843;28;20029;-59
2023/03/24 03:20:17;;;;;;;5.13;3.15;;;;;;;;;;5009905;28;20431;-60
2023/03/24 03:22:55;;;;;;;4.38;2.92;;;;;;;;;;5012420;28;20038;-60
2023/03/24 03:25:28;;;;;;;4.43;2.97;;;;;;;;;;5011907;28;20507;-60
2023/03/24 03:27:58;;;;;;;4.72;3.25;;;;;;;;;;5038045;28;20050;-59
2023/03/24 03:30:55;;;;;;;5.35;3.40;;;;;;;;;;5009957;28;20049;-59
2023/03/24 03:33:25;;;;;;;6.05;2.90;;;;;;;;;;5016180;28;20053;-59
2023/03/24 03:35:55;;;;;;;5.63;2.95;;;;;;;;;;5009462;28;20038;-60
2023/03/24 03:38:30;;;;;;;3.50;3.10;;;;;;;;;;5010785;28;20041;-60
2023/03/24 03:40:59;;;;;;;5.28;3.13;;;;;;;;;;4989881;28;20037;-60
2023/03/24 03:43:32;;;;;;;7.07;3.10;;;;;;;;;;5007206;28;20029;-60
2023/03/24 03:45:59;;;;;;;5.47;3.50;;;;;;;;;;5008348;28;20052;-59
2023/03/24 03:48:33;;;;;;;6.70;3.10;;;;;;;;;;5010808;28;20046;-59
2023/03/24 03:50:59;;;;;;;5.80;3.17;;;;;;;;;;5009729;28;20034;-60
2023/03/24 03:53:36;;;;;;;6.15;3.45;;;;;;;;;;5009924;28;20093;-60
2023/03/24 03:56:03;;;;;;;5.88;2.80;;;;;;;;;;5007335;28;20057;-60
2023/03/24 03:58:31;;;;;;;;;;;;;;;;;;5010607;28;20042;-60
2023/03/24 04:00:58;;;;;;;4.55;3.33;;;;;;;;;;5010178;28;19913;-60
2023/03/24 04:03:57;;;;;;;6.78;3.58;;;;;;;;;;5009888;28;20106;-60
2023/03/24 04:07:06;;;;;;;4.95;3.40;;;;;;;;;;5010059;28;20041;-61
2023/03/24 04:09:44;;;;;;;4.68;3.22;;;;;;;;;;5009041;28;20041;-60
2023/03/24 04:12:22;;;;;;;6.80;3.22;;;;;;;;;;5011034;28;20495;-59
2023/03/24 04:15:41;;;;;;;5.68;3.15;;;;;;;;;;5009407;28;20040;-59
2023/03/24 04:19:13;;;;;;;6.75;3.22;;;;;;;;;;4993991;28;20408;-60
2023/03/24 04:21:52;;;;;;;8.25;3.25;;;;;;;;;;5003145;28;20527;-60
2023/03/24 04:24:27;;;;;;;5.00;2.90;;;;;;;;;;5009114;28;20092;-60
2023/03/24 04:27:20;;;;;;;3.97;2.63;;;;;;;;;;5009004;28;20527;-60
2023/03/24 04:30:05;;;;;;;6.28;3.60;;;;;;;;;;5004064;28;20508;-60
2023/03/24 04:32:53;;;;;;;4.63;3.10;;;;;;;;;;5008017;28;20049;-61
2023/03/24 04:35:34;;;;;;;7.18;3.45;;;;;;;;;;5022920;28;20038;-61
2023/03/24 04:38:21;;;;;;;3.38;2.65;;;;;;;;;;5008000;28;20030;-59
2023/03/24 04:40:55;;;;;;;4.65;2.88;;;;;;;;;;5006443;28;20045;-60
2023/03/24 04:43:26;;;;;;;5.50;2.97;;;;;;;;;;5009099;28;20052;-60
2023/03/24 04:45:56;;;;;;;4.63;2.80;;;;;;;;;;5009799;28;20057;-60
2023/03/24 04:48:49;;;;;;;4.07;3.20;;;;;;;;;;5010004;28;20053;-60
2023/03/24 04:51:27;;;;;;;5.13;2.67;;;;;;;;;;5008670;28;20082;-60
2023/03/24 04:54:05;;;;;;;3.17;2.67;;;;;;;;;;4993382;28;20053;-60
2023/03/24 04:56:46;;;;;;;8.27;3.75;;;;;;;;;;5008401;28;20045;-60
2023/03/24 04:59:41;;;;;;;4.35;3.20;;;;;;;;;;5008858;28;20034;-60
2023/03/24 05:02:09;;;;;;;3.92;2.75;;;;;;;;;;5008053;28;20054;-59
2023/03/24 05:04:54;;;;;;;2.97;2.50;;;;;;;;;;5005556;28;20045;-60
2023/03/24 05:07:31;;;;;;;6.40;2.60;;;;;;;;;;5005785;28;20033;-59
2023/03/24 05:10:00;;;;;;;3.88;2.65;;;;;;;;;;4991606;28;20380;-60
2023/03/24 05:12:27;;;;;;;4.10;2.58;;;;;;;;;;5008774;28;20037;-60
2023/03/24 05:15:25;;;;;;;4.03;2.67;;;;;;;;;;5003211;28;20049;-60
2023/03/24 05:17:58;;;;;;;5.45;2.50;;;;;;;;;;5008439;28;20042;-60
2023/03/24 05:20:25;;;;;;;4.10;2.50;;;;;;;;;;5009451;28;20046;-60
2023/03/24 05:22:52;;;;;;;4.07;2.60;;;;;;;;;;5007594;28;20048;-61
2023/03/24 05:25:19;;;;;;;4.43;2.80;;;;;;;;;;5007919;28;20057;-59
2023/03/24 05:27:46;;;;;;;5.95;2.92;;;;;;;;;;4992148;28;20041;-60
2023/03/24 05:30:21;;;;;;;6.47;2.90;;;;;;;;;;5007111;28;20046;-60
2023/03/24 05:32:50;;;;;;;;;;;;;;;;;;5008239;28;20037;-59
2023/03/24 05:35:17;;;;;;;6.13;3.75;;;;;;;;;;5007541;28;19914;-60
2023/03/24 05:37:44;;;;;;;7.68;3.40;;;;;;;;;;5007138;28;20046;-62
2023/03/24 05:40:11;;;;;;;4.32;3.10;;;;;;;;;;5007117;28;20042;-62
2023/03/24 05:42:44;;;;;;;5.82;3.10;;;;;;;;;;5007982;28;20053;-63
2023/03/24 05:45:12;;;;;;;4.40;3.20;;;;;;;;;;5001069;28;20076;-62
2023/03/24 05:47:39;;;;;;;4.18;3.13;;;;;;;;;;5004678;28;20038;-63
2023/03/24 05:50:05;;;;;;;7.47;3.50;;;;;;;;;;5006404;28;20029;-63
2023/03/24 05:52:33;;;;;;;6.13;4.00;;;;;;;;;;5006994;28;20054;-63
2023/03/24 05:55:15;;;;;;;10.05;4.88;;;;;;;;;;4990197;28;20041;-64
2023/03/24 05:57:42;;;;;;;7.75;3.72;;;;;;;;;;5004341;28;20053;-63
2023/03/24 06:00:15;;;;;;;8.77;4.60;;;;;;;;;;5003709;28;20041;-64
2023/03/24 06:02:49;;;;;;;7.05;4.45;;;;;;;;;;5005141;28;20496;-62
2023/03/24 06:05:25;;;;;;;8.32;4.57;;;;;;;;;;4989549;28;20038;-63
2023/03/24 06:07:57;;;;;;;9.10;4.60;;;;;;;;;;5009581;28;20037;-63
2023/03/24 06:10:28;;;;;;;5.78;3.85;;;;;;;;;;5000267;28;20435;-63
2023/03/24 06:12:55;;;;;;;9.00;4.80;;;;;;;;;;5008702;28;20046;-62
2023/03/24 06:15:26;;;;;;;5.90;4.60;;;;;;;;;;4991372;28;20384;-63
2023/03/24 06:17:54;;;;;;;11.15;3.90;;;;;;;;;;5007638;28;20049;-59
2023/03/24 06:20:29;;;;;;;14.93;8.23;;;;;;;;;;5006749;28;20061;-63
2023/03/24 06:23:07;;;;;;;12.40;5.95;;;;;;;;;;5035713;28;20046;-62
2023/03/24 06:25:46;;;;;;;17.33;7.90;;;;;;;;;;4991553;28;20033;-62
2023/03/24 06:28:21;;;;;;;7.78;5.18;;;;;;;;;;5007191;28;20053;-61
2023/03/24 06:30:48;;;;;;;17.15;7.32;;;;;;;;;;4998946;28;20049;-62
2023/03/24 06:33:24;;;;;;;11.50;4.97;;;;;;;;;;5005898;28;20033;-61
2023/03/24 06:35:52;;;;;;;9.07;4.60;;;;;;;;;;5007979;28;20048;-61
2023/03/24 06:38:18;;;;;;;11.20;5.07;;;;;;;;;;5007743;28;20105;-61
2023/03/24 06:40:45;;;;;;;10.38;5.43;;;;;;;;;;5007094;28;20030;-62
2023/03/24 06:43:11;;;;;;;9.80;4.30;;;;;;;;;;5008003;28;20034;-61
2023/03/24 06:45:39;;;;;;;8.73;4.80;;;;;;;;;;5007220;28;20042;-61
2023/03/24 06:48:07;;;;;;;8.63;4.97;;;;;;;;;;5007487;28;20042;-61
2023/03/24 06:50:34;;;;;;;8.05;4.60;;;;;;;;;;5006593;28;20041;-61
2023/03/24 06:53:06;;;;;;;11.13;4.68;;;;;;;;;;5007938;28;20038;-61
2023/03/24 06:55:35;;;;;;;10.70;5.75;;;;;;;;;;5007631;28;20527;-61
2023/03/24 06:58:03;;;;;;;10.00;5.32;;;;;;;;;;5001504;28;20045;-61
2023/03/24 07:00:33;;;;;;;9.60;4.90;;;;;;;;;;5005977;28;20603;-61
2023/03/24 07:03:21;;;;;;;10.07;5.22;;;;;;;;;;5011990;28;20096;-61
2023/03/24 07:06:06;;;;;;;8.30;4.88;;;;;;;;;;5009121;28;20069;-62
2023/03/24 07:08:32;;;;;;;10.82;5.15;;;;;;;;;;5010323;28;20038;-61
2023/03/24 07:10:58;;;;;;;7.30;4.70;;;;;;;;;;5010055;28;20042;-60
2023/03/24 07:13:25;;;;;;;10.80;5.90;;;;;;;;;;5010936;28;20032;-61
2023/03/24 07:15:57;;;;;;;8.15;5.00;;;;;;;;;;5010295;28;20037;-61
2023/03/24 07:18:23;;;;;;;9.02;5.20;;;;;;;;;;5009697;28;20033;-61
2023/03/24 07:20:57;;;;;;;8.35;5.40;;;;;;;;;;5008904;28;20052;-61
2023/03/24 07:23:25;;;;;;;10.02;5.28;;;;;;;;;;5010410;28;20030;-61
2023/03/24 07:25:56;;;;;;;10.88;5.72;;;;;;;;;;5010748;28;20040;-61
2023/03/24 07:28:50;;;;;;;7.80;5.32;;;;;;;;;;5006243;28;20335;-61
2023/03/24 07:31:53;;;;;;;8.18;5.45;;;;;;;;;;5008086;28;20054;-62
2023/03/24 07:34:20;;;;;;;7.95;4.90;;;;;;;;;;5014081;28;20053;-62
2023/03/24 07:36:46;;;;;;;7.60;5.15;;;;;;;;;;5010795;28;20042;-62
2023/03/24 07:39:16;;;;;;;10.90;5.90;;;;;;;;;;5010087;28;20037;-62
2023/03/24 07:41:42;;;;;;;8.85;5.72;;;;;;;;;;5010621;28;20038;-62
2023/03/24 07:44:19;;;;;;;6.35;4.82;;;;;;;;;;5010074;28;20046;-61
2023/03/24 07:46:49;;;;;;;8.25;5.18;;;;;;;;;;5009950;28;20438;-61
2023/03/24 07:49:15;;;;;;;8.77;5.35;;;;;;;;;;5009071;28;20050;-61
2023/03/24 07:51:42;;;;;;;7.75;4.90;;;;;;;;;;5010443;28;20495;-62
2023/03/24 07:54:18;;;;;;;5.88;4.68;;;;;;;;;;5009689;28;20046;-62
2023/03/24 07:56:47;;;;;;;9.25;5.03;;;;;;;;;;5010379;28;20050;-62
2023/03/24 07:59:13;;;;;;;6.90;5.03;;;;;;;;;;5009594;28;20053;-62
2023/03/24 08:02:00;;;;;;;9.23;5.20;;;;;;;;;;5006841;28;20057;-62
2023/03/24 08:04:52;;;;;;;6.68;5.10;;;;;;;;;;5009991;28;20045;-62
2023/03/24 08:07:52;;;;;;;9.45;6.40;;;;;;;;;;5010134;28;20038;-62
2023/03/24 08:10:20;;;;;;;5.68;4.35;;;;;;;;;;5010505;28;20042;-61
2023/03/24 08:12:46;;;;;;;6.45;4.55;;;;;;;;;;5010353;28;20029;-62
2023/03/24 08:15:13;;;;;;;8.80;5.75;;;;;;;;;;5010934;28;20061;-61
2023/03/24 08:17:40;;;;;;;8.63;5.50;;;;;;;;;;5011000;28;20033;-62
2023/03/24 08:20:10;;;;;;;6.15;4.72;;;;;;;;;;5010195;28;20034;-61
2023/03/24 08:22:40;;;;;;;5.00;3.72;;;;;;;;;;5011263;28;20181;-61
2023/03/24 08:25:07;;;;;;;5.55;4.05;;;;;;;;;;5010850;28;20042;-61
2023/03/24 08:27:33;;;;;;;5.03;3.95;;;;;;;;;;5011073;28;20068;-62
2023/03/24 08:29:59;;;;;;;7.68;4.07;;;;;;;;;;5010158;28;20416;-62
2023/03/24 08:32:25;;;;;;;6.65;4.15;;;;;;;;;;5010059;28;20041;-62
2023/03/24 08:34:53;;;;;;;4.57;3.90;;;;;;;;;;5003105;28;20034;-62
2023/03/24 08:37:19;;;;;;;9.80;4.55;;;;;;;;;;5008451;28;20487;-62
2023/03/24 08:39:46;;;;;;;6.20;4.50;;;;;;;;;;5009980;28;20046;-62
2023/03/24 08:42:12;;;;;;;6.47;4.57;;;;;;;;;;5010735;28;20038;-62
2023/03/24 08:44:39;;;;;;;6.95;4.85;;;;;;;;;;5011495;28;20049;-61
2023/03/24 08:47:05;;;;;;;6.43;4.30;;;;;;;;;;5010028;28;20029;-61
2023/03/24 08:49:31;;;;;;;6.00;4.18;;;;;;;;;;5009653;28;20060;-61
2023/03/24 08:51:57;;;;;;;5.20;3.53;;;;;;;;;;5010583;28;20499;-62
2023/03/24 08:54:25;;;;;;;4.97;3.80;;;;;;;;;;5024190;28;20049;-62
2023/03/24 08:56:51;;;;;;;4.13;3.05;;;;;;;;;;5010631;28;20030;-62
2023/03/24 08:59:17;;;;;;;2.85;2.58;;;;;;;;;;5010150;28;20049;-62
2023/03/24 09:01:43;;;;;;;3.30;2.92;;;;;;;;;;5008950;28;20033;-62
2023/03/24 09:04:10;;;;;;;3.17;2.70;;;;;;;;;;5010348;28;20042;-62
2023/03/24 09:06:36;;;;;;;3.08;2.50;;;;;;;;;;5010309;28;20049;-62
2023/03/24 09:09:02;;;;;;;4.07;2.13;;;;;;;;;;5007962;28;20042;-62
2023/03/24 09:11:29;;;;;;;3.50;2.17;;;;;;;;;;5010155;28;20117;-61
2023/03/24 09:13:55;;;;;;;2.35;2.15;;;;;;;;;;5016812;28;20045;-62
2023/03/24 09:16:22;;;;;;;3.58;2.60;;;;;;;;;;5001651;28;20041;-61
2023/03/24 09:18:48;;;;;;;2.42;2.22;;;;;;;;;;5011047;28;20050;-61
2023/03/24 09:21:15;;;;;;;2.17;1.98;;;;;;;;;;5010107;28;20045;-63
2023/03/24 09:23:42;;;;;;;2.70;2.05;;;;;;;;;;5011052;28;20052;-62
2023/03/24 09:26:08;;;;;;;2.75;2.45;;;;;;;;;;5010025;28;20049;-61
2023/03/24 09:28:34;;;;;;;3.97;3.13;;;;;;;;;;5008935;28;20050;-61
2023/03/24 09:31:03;;;;;;;2.97;2.58;;;;;;;;;;5020267;28;20052;-61
2023/03/24 09:33:30;;;;;;;2.20;2.00;;;;;;;;;;5015234;28;20392;-62
2023/03/24 09:35:59;;;;;;;2.35;2.08;;;;;;;;;;5012929;28;20041;-62
2023/03/24 09:38:25;;;;;;;2.47;1.60;;;;;;;;;;5030208;28;20053;-61
2023/03/24 09:40:56;;;;;;;2.05;1.92;;;;;;;;;;5018592;28;20396;-62
2023/03/24 09:43:30;;;;;;;1.92;1.75;;;;;;;;;;5025923;28;20038;-61
2023/03/24 09:45:58;;;;;;;1.70;1.60;;;;;;;;;;4995884;28;20491;-60
2023/03/24 09:48:30;;;;;;;2.53;2.03;;;;;;;;;;5010823;28;20522;-60
2023/03/24 09:51:11;;;;;;;2.28;2.08;;;;;;;;;;5005745;28;20061;-60
2023/03/24 09:53:47;;;;;;;2.10;1.80;;;;;;;;;;5010672;28;20033;-60
2023/03/24 09:56:17;;;;;;;2.08;1.70;;;;;;;;;;5010589;28;20045;-61
2023/03/24 09:58:51;;;;;;;1.60;1.50;;;;;;;;;;5019511;28;20034;-60
2023/03/24 10:01:18;;;;;;;2.22;2.03;;;;;;;;;;5022842;28;20037;-60
2023/03/24 10:03:45;;;;;;;2.50;1.40;;;;;;;;;;5014454;28;20056;-60
2023/03/24 10:06:40;;;;;;;1.80;1.70;;;;;;;;;;5013908;28;20034;-60
2023/03/24 10:09:24;;;;;;;1.73;1.63;;;;;;;;;;5009658;28;20075;-61
2023/03/24 10:11:50;;;;;;;1.48;1.38;;;;;;;;;;5010200;28;20045;-61
2023/03/24 10:14:53;;;;;;;1.70;1.60;;;;;;;;;;5009840;28;20056;-60
2023/03/24 10:17:34;;;;;;;1.30;1.20;;;;;;;;;;5025690;28;20042;-61
2023/03/24 10:20:30;;;;;;;1.92;1.77;;;;;;;;;;5009747;28;20042;-62
2023/03/24 10:23:01;;;;;;;2.00;1.30;;;;;;;;;;5023148;28;20047;-63
2023/03/24 10:25:50;;;;;;;2.38;1.23;;;;;;;;;;5023959;28;20042;-62
2023/03/24 10:28:38;;;;;;;1.38;1.27;;;;;;;;;;5022934;28;20037;-61
2023/03/24 10:31:10;;;;;;;2.45;1.80;;;;;;;;;;5009386;28;20050;-59
2023/03/24 10:33:42;;;;;;;1.63;1.48;;;;;;;;;;5009647;28;20033;-62
2023/03/24 10:36:17;;;;;;;1.65;1.40;;;;;;;;;;5011156;28;20050;-62
2023/03/24 10:38:44;;;;;;;4.35;1.30;;;;;;;;;;5029891;28;20033;-62
2023/03/24 10:41:20;;;;;;;1.48;1.35;;;;;;;;;;5012547;28;20048;-62
2023/03/24 10:43:49;;;;;;;1.60;1.50;;;;;;;;;;5017008;28;20034;-62
2023/03/24 10:46:19;;;;;;;2.00;1.17;;;;;;;;;;5016544;28;20057;-61
2023/03/24 10:48:48;;;;;;;1.88;1.60;;;;;;;;;;5013236;28;20038;-61
2023/03/24 10:51:25;;;;;;;1.20;1.10;;;;;;;;;;5011004;28;20037;-62
2023/03/24 10:54:15;;;;;;;1.42;1.30;;;;;;;;;;5011252;28;20049;-61
2023/03/24 10:56:44;;;;;;;1.30;1.20;;;;;;;;;;4999772;28;20053;-61
2023/03/24 10:59:33;;;;;;;1.55;1.30;;;;;;;;;;5012689;28;20352;-62
2023/03/24 11:02:23;;;;;;;2.13;1.30;;;;;;;;;;5010358;28;20045;-62
2023/03/24 11:04:57;;;;;;;1.30;1.20;;;;;;;;;;5012275;28;20068;-62
2023/03/24 11:07:36;;;;;;;1.52;1.38;;;;;;;;;;5013250;28;20053;-60
2023/03/24 11:10:17;;;;;;;1.77;1.17;;;;;;;;;;5010963;28;20050;-60
2023/03/24 11:12:52;;;;;;;2.15;1.10;;;;;;;;;;5012726;28;20057;-60
2023/03/24 11:15:27;;;;;;;2.00;1.60;;;;;;;;;;5012539;28;20038;-61
2023/03/24 11:17:55;;;;;;;2.17;1.27;;;;;;;;;;5011358;28;20499;-61
2023/03/24 11:20:32;;;;;;;3.63;1.55;;;;;;;;;;5010247;28;20034;-60
2023/03/24 11:23:19;;;;;;;2.25;1.30;;;;;;;;;;5019977;28;20041;-61
2023/03/24 11:26:00;;;;;;;3.58;1.60;;;;;;;;;;5012860;28;21034;-61
2023/03/24 11:28:27;;;;;;;1.63;1.50;;;;;;;;;;5012556;28;20046;-62
2023/03/24 11:30:54;;;;;;;2.85;1.20;;;;;;;;;;5010340;28;20045;-61
2023/03/24 11:33:33;;;;;;;1.58;1.20;;;;;;;;;;5012372;28;20038;-60
2023/03/24 11:36:00;;;;;;;2.00;1.70;;;;;;;;;;5012127;28;20079;-61
2023/03/24 11:38:33;;;;;;;2.35;1.60;;;;;;;;;;5012585;28;20056;-61
2023/03/24 11:41:03;;;;;;;1.40;1.25;;;;;;;;;;5011589;28;20050;-61
2023/03/24 11:43:30;;;;;;;1.65;1.40;;;;;;;;;;5012293;28;20065;-62
2023/03/24 11:46:15;;;;;;;2.17;1.52;;;;;;;;;;5010788;28;20049;-60
2023/03/24 11:48:54;;;;;;;1.85;1.13;;;;;;;;;;5012099;28;20042;-62
2023/03/24 11:51:29;;;;;;;1.05;0.90;;;;;;;;;;5009901;28;20041;-62
2023/03/24 11:53:57;;;;;;;1.75;1.30;;;;;;;;;;5013010;28;20038;-61
2023/03/24 11:56:43;;;;;;;1.35;1.05;;;;;;;;;;5020541;28;20045;-61
2023/03/24 11:59:20;;;;;;;3.83;1.20;;;;;;;;;;5008166;28;20165;-61
2023/03/24 12:02:18;;;;;;;1.20;1.10;;;;;;;;;;5009600;28;20071;-62
2023/03/24 12:05:18;;;;;;;1.77;1.20;;;;;;;;;;5008270;28;20416;-62
2023/03/24 12:08:22;;;;;;;0.80;0.80;;;;;;;;;;5000565;28;20038;-62
2023/03/24 12:11:19;;;;;;;1.83;1.08;;;;;;;;;;5010744;28;20038;-61
2023/03/24 12:13:49;;;;;;;1.30;1.10;;;;;;;;;;5001229;28;20388;-61
2023/03/24 12:16:51;;;;;;;1.45;1.05;;;;;;;;;;5008231;28;20059;-62
2023/03/24 12:19:36;;;;;;;1.00;0.90;;;;;;;;;;5004682;28;20049;-62
2023/03/24 12:22:23;;;;;;;1.23;0.80;;;;;;;;;;5008717;28;20037;-61
2023/03/24 12:24:57;;;;;;;1.08;0.98;;;;;;;;;;5010849;28;20435;-61
2023/03/24 12:27:52;;;;;;;1.17;0.80;;;;;;;;;;5011177;28;20030;-61
2023/03/24 12:30:40;;;;;;;5.68;1.40;;;;;;;;;;5009015;28;20057;-62
2023/03/24 12:33:24;;;;;;;0.95;0.90;;;;;;;;;;4998238;28;20515;-62
2023/03/24 12:36:30;;;;;;;1.35;0.90;;;;;;;;;;5010704;28;20045;-62
2023/03/24 12:39:14;;;;;;;1.30;1.00;;;;;;;;;;5011064;28;20045;-62
2023/03/24 12:41:52;;;;;;;2.13;1.10;;;;;;;;;;5020713;28;20025;-62
2023/03/24 12:44:45;;;;;;;1.60;1.30;;;;;;;;;;5012582;28;20042;-62
2023/03/24 12:47:46;;;;;;;5.32;2.25;;;;;;;;;;5010074;28;20081;-61
2023/03/24 12:50:35;;;;;;;0.80;0.80;;;;;;;;;;5007914;28;20042;-62
2023/03/24 12:53:52;;;;;;;1.15;1.05;;;;;;;;;;5008898;28;20049;-62
2023/03/24 12:56:29;;;;;;;4.05;0.90;;;;;;;;;;5010693;28;20037;-62
2023/03/24 12:59:05;;;;;;;0.93;0.80;;;;;;;;;;5010598;28;20060;-62
2023/03/24 13:01:37;;;;;;;1.05;0.82;;;;;;;;;;5010513;28;20056;-62
2023/03/24 13:04:19;;;;;;;0.98;0.90;;;;;;;;;;5010443;28;20068;-61
2023/03/24 13:06:55;;;;;;;1.42;0.70;;;;;;;;;;5010830;28;20034;-64
2023/03/24 13:09:30;;;;;;;2.15;1.15;;;;;;;;;;5008369;28;20046;-61
2023/03/24 13:12:01;;;;;;;0.77;0.77;;;;;;;;;;5010422;28;20037;-62
2023/03/24 13:14:44;;;;;;;0.88;0.80;;;;;;;;;;5014983;28;20431;-63
2023/03/24 13:17:19;;;;;;;1.60;0.73;;;;;;;;;;5016661;28;20057;-62
2023/03/24 13:19:47;;;;;;;1.48;0.90;;;;;;;;;;5007447;28;20439;-63
2023/03/24 13:22:19;;;;;;;1.15;0.90;;;;;;;;;;5010237;28;20122;-61
2023/03/24 13:24:46;;;;;;;1.65;0.80;;;;;;;;;;5010332;28;20044;-62
2023/03/24 13:27:34;;;;;;;1.15;0.90;;;;;;;;;;5008674;28;20423;-62
2023/03/24 13:30:07;;;;;;;3.90;0.80;;;;;;;;;;5007758;28;20064;-63
2023/03/24 13:32:38;;;;;;;0.80;0.60;;;;;;;;;;5009722;28;20058;-62
2023/03/24 13:35:38;;;;;;;1.55;0.98;;;;;;;;;;5010088;28;20042;-62
2023/03/24 13:38:25;;;;;;;1.27;0.63;;;;;;;;;;5029504;28;20049;-61
2023/03/24 13:40:52;;;;;;;2.35;0.60;;;;;;;;;;5009740;28;20050;-63
2023/03/24 13:43:29;;;;;;;0.95;0.77;;;;;;;;;;5010280;28;20395;-59
2023/03/24 13:46:02;;;;;;;3.22;1.15;;;;;;;;;;5007148;28;20483;-62
2023/03/24 13:48:31;;;;;;;1.05;0.73;;;;;;;;;;5009382;28;20046;-61
2023/03/24 13:51:19;;;;;;;0.73;0.63;;;;;;;;;;5008702;28;20575;-62
2023/03/24 13:53:58;;;;;;;1.20;0.60;;;;;;;;;;4997094;28;20050;-61
2023/03/24 13:56:34;;;;;;;0.60;0.60;;;;;;;;;;5009411;28;20400;-62
2023/03/24 13:59:00;;;;;;;0.68;0.60;;;;;;;;;;5009759;28;20502;-61
2023/03/24 14:01:33;;;;;;;0.60;0.60;;;;;;;;;;5008680;28;20046;-62
2023/03/24 14:04:17;;;;;;;0.45;0.45;;;;;;;;;;5009690;28;20089;-62
2023/03/24 14:06:50;;;;;;;0.70;0.70;;;;;;;;;;5009794;28;20041;-61
2023/03/24 14:09:31;;;;;;;0.60;0.60;;;;;;;;;;5009297;28;20395;-62
2023/03/24 14:11:57;;;;;;;0.95;0.60;;;;;;;;;;5012181;28;20045;-62
2023/03/24 14:14:26;;;;;;;1.80;0.70;;;;;;;;;;5013616;28;20037;-61
2023/03/24 14:17:05;;;;;;;0.50;0.50;;;;;;;;;;5026985;28;20037;-61
2023/03/24 14:19:40;;;;;;;1.10;0.80;;;;;;;;;;5013091;28;20048;-61
2023/03/24 14:22:10;;;;;;;0.98;0.70;;;;;;;;;;5011110;28;20049;-62
2023/03/24 14:24:37;;;;;;;0.68;0.60;;;;;;;;;;5011817;28;20647;-61
2023/03/24 14:27:29;;;;;;;0.73;0.70;;;;;;;;;;5013236;28;20050;-62
2023/03/24 14:29:59;;;;;;;0.75;0.50;;;;;;;;;;5012889;28;20050;-61
2023/03/24 14:32:26;;;;;;;1.48;0.55;;;;;;;;;;5011544;28;20037;-62
2023/03/24 14:34:56;;;;;;;1.33;0.52;;;;;;;;;;5012741;28;20068;-63
2023/03/24 14:37:25;;;;;;;2.75;0.98;;;;;;;;;;5023799;28;20046;-62
2023/03/24 14:39:52;;;;;;;0.75;0.50;;;;;;;;;;5012625;28;20502;-61
2023/03/24 14:42:47;;;;;;;0.82;0.70;;;;;;;;;;5013233;28;20058;-61
2023/03/24 14:45:29;;;;;;;1.10;0.80;;;;;;;;;;4999202;28;20053;-61
2023/03/24 14:48:00;;;;;;;0.70;0.60;;;;;;;;;;5012238;28;20046;-62
2023/03/24 14:50:27;;;;;;;1.17;0.80;;;;;;;;;;5010331;28;20045;-61
2023/03/24 14:52:58;;;;;;;1.95;1.00;;;;;;;;;;5010916;28;20038;-62
2023/03/24 14:55:26;;;;;;;0.68;0.68;;;;;;;;;;5012697;28;20411;-61
2023/03/24 14:57:55;;;;;;;1.48;0.70;;;;;;;;;;5011428;28;20053;-63
2023/03/24 15:00:22;;;;;;;1.05;0.82;;;;;;;;;;5014112;28;20045;-61
2023/03/24 15:03:10;;;;;;;3.72;0.90;;;;;;;;;;5029738;28;20090;-62
2023/03/24 15:05:37;;;;;;;0.75;0.75;;;;;;;;;;5016187;28;20053;-62
2023/03/24 15:08:20;;;;;;;1.63;0.70;;;;;;;;;;5010238;28;20033;-61
2023/03/24 15:10:55;;;;;;;0.73;0.73;;;;;;;;;;5006701;28;20050;-63
2023/03/24 15:13:24;;;;;;;0.70;0.70;;;;;;;;;;5001884;28;20663;-61
2023/03/24 15:15:50;;;;;;;3.70;1.88;;;;;;;;;;5005826;28;20498;-61
2023/03/24 15:18:24;;;;;;;1.52;1.20;;;;;;;;;;5011829;28;20032;-64
2023/03/24 15:20:51;;;;;;;2.13;1.20;;;;;;;;;;5006876;28;20042;-64
2023/03/24 15:23:20;;;;;;;1.83;1.15;;;;;;;;;;5009607;28;20499;-61
2023/03/24 15:25:46;;;;;;;2.65;0.98;;;;;;;;;;5011038;28;20385;-63
2023/03/24 15:28:20;;;;;;;3.03;1.00;;;;;;;;;;5006390;28;20101;-60